Time;durP1;ratioP1;P1;durP2;ratioP2;P2;SDS_P1;SDS_P2;PMS_P1;PMS_P2;Temp;Humidity;BMP_temperature;BMP_pressure;BME280_temperature;BME280_humidity;BME280_pressure;Samples;Min_cycle;Max_cycle;Signal;HPM_P1;HPM_P2
2022/12/23 00:02:03;;;;;;;28.65;19.48;;;;;;;4.62;65.40;100134.59;1714981;82;21190;-69
2022/12/23 00:04:30;;;;;;;29.15;18.42;;;;;;;4.62;65.43;100131.94;1718761;83;21040;-69
2022/12/23 00:06:57;;;;;;;30.30;20.15;;;;;;;4.61;65.42;100133.78;1712072;82;21140;-69
2022/12/23 00:09:24;;;;;;;34.03;20.55;;;;;;;4.57;65.42;100130.48;1712452;83;21555;-69
2022/12/23 00:17:21;;;;;;;27.93;19.45;;;;;;;4.48;65.52;100114.67;1713800;83;21015;-69
2022/12/23 00:19:47;;;;;;;27.85;19.48;;;;;;;4.43;65.57;100116.14;1686232;83;21580;-69
2022/12/23 00:22:14;;;;;;;26.80;18.02;;;;;;;4.39;65.61;100115.52;1665914;85;21526;-69
2022/12/23 00:24:40;;;;;;;30.00;20.10;;;;;;;4.33;65.63;100115.09;1712783;83;21060;-70
2022/12/23 00:27:07;;;;;;;29.10;20.57;;;;;;;4.25;65.66;100109.62;1703975;82;21843;-69
2022/12/23 00:29:34;;;;;;;28.65;19.87;;;;;;;4.20;65.75;100105.52;1716556;82;21072;-69
2022/12/23 00:32:00;;;;;;;27.77;20.70;;;;;;;4.14;65.79;100091.87;1452788;84;9999992;-70
2022/12/23 00:34:27;;;;;;;29.50;20.90;;;;;;;4.08;65.86;100083.52;1695455;84;20949;-71
2022/12/23 00:36:53;;;;;;;28.30;19.73;;;;;;;4.02;65.96;100083.12;1680648;83;21070;-69
2022/12/23 00:45:14;;;;;;;31.85;21.70;;;;;;;3.83;66.25;100091.61;1708564;82;21228;-69
2022/12/23 00:50:08;;;;;;;31.45;21.02;;;;;;;3.64;66.54;100097.44;1672395;83;21102;-70
2022/12/23 00:52:35;;;;;;;34.00;21.15;;;;;;;3.57;66.83;100089.59;1707752;82;21085;-69
2022/12/23 00:55:01;;;;;;;32.65;21.60;;;;;;;3.52;67.03;100085.48;1712773;82;21045;-69
2022/12/23 00:57:28;;;;;;;32.08;22.10;;;;;;;3.51;67.18;100086.52;1709079;82;21624;-69
2022/12/23 00:59:55;;;;;;;32.13;21.85;;;;;;;3.47;67.29;100086.16;1702365;82;21022;-69
2022/12/23 01:07:55;;;;;;;32.63;22.37;;;;;;;3.39;67.50;100077.23;1687737;83;21043;-69
2022/12/23 01:10:22;;;;;;;35.40;24.23;;;;;;;3.39;67.57;100065.35;1667718;84;21263;-69
2022/12/23 01:12:48;;;;;;;32.93;22.77;;;;;;;3.34;67.64;100069.16;1711803;83;21042;-70
2022/12/23 01:15:15;;;;;;;34.78;23.20;;;;;;;3.30;67.72;100066.67;1700950;83;21101;-70
2022/12/23 01:17:42;;;;;;;34.92;23.30;;;;;;;3.26;67.81;100065.51;1701160;83;21034;-70
2022/12/23 01:20:11;;;;;;;36.70;23.90;;;;;;;3.23;67.87;100075.19;1702133;82;21570;-70
2022/12/23 01:22:37;;;;;;;30.88;22.13;;;;;;;3.21;67.98;100069.30;1701285;82;21231;-70
2022/12/23 01:25:05;;;;;;;34.23;23.55;;;;;;;2.72;68.98;100077.61;1668665;84;21075;-70
2022/12/23 01:27:32;;;;;;;34.58;24.12;;;;;;;3.04;68.69;100077.80;1701935;82;21039;-70
2022/12/23 01:29:59;;;;;;;36.80;24.35;;;;;;;3.11;68.56;100078.25;1698679;82;21054;-70
2022/12/23 01:32:27;;;;;;;34.98;24.15;;;;;;;3.11;68.63;100080.38;1696165;82;21054;-70
2022/12/23 01:34:54;;;;;;;33.98;23.45;;;;;;;3.10;68.72;100076.65;1697262;83;21151;-70
2022/12/23 01:37:21;;;;;;;37.35;24.12;;;;;;;3.12;68.88;100081.98;1702450;83;21038;-69
2022/12/23 01:39:47;;;;;;;33.50;23.67;;;;;;;3.15;69.07;100075.46;1688154;84;21206;-70
2022/12/23 01:45:16;;;;;;;35.58;23.95;;;;;;;3.39;69.02;100075.08;1696348;83;21097;-69
2022/12/23 01:47:59;;;;;;;37.65;25.05;;;;;;;3.37;69.26;100070.55;1702959;82;21144;-69
2022/12/23 01:50:39;;;;;;;36.48;24.30;;;;;;;3.33;69.72;100068.88;1696920;83;20956;-69
2022/12/23 01:53:13;;;;;;;35.10;24.05;;;;;;;3.38;69.91;100067.67;1677237;83;21478;-69
2022/12/23 01:55:51;;;;;;;34.53;23.77;;;;;;;3.48;69.88;100061.88;1696788;83;20992;-69
2022/12/23 01:58:30;;;;;;;36.42;24.47;;;;;;;3.53;69.98;100060.70;1701686;83;21050;-69
2022/12/23 02:03:44;;;;;;;39.40;24.80;;;;;;;3.65;70.10;100058.10;1687413;83;21046;-70
2022/12/23 02:09:16;;;;;;;40.10;25.75;;;;;;;3.92;69.64;100063.33;1696030;84;21066;-69
2022/12/23 02:12:20;;;;;;;37.15;25.85;;;;;;;3.77;69.85;100060.28;1699051;83;22089;-69
2022/12/23 02:18:34;;;;;;;35.45;24.55;;;;;;;3.78;69.96;100057.13;1642838;86;21077;-69
2022/12/23 02:21:32;;;;;;;36.93;24.20;;;;;;;3.80;69.94;100051.11;1699275;83;21113;-69
2022/12/23 02:24:13;;;;;;;39.85;25.60;;;;;;;3.78;69.93;100050.00;1699800;82;21154;-69
2022/12/23 02:27:14;;;;;;;36.53;25.12;;;;;;;3.79;69.86;100060.87;1692370;84;21619;-69
2022/12/23 02:30:24;;;;;;;35.60;24.15;;;;;;;3.82;69.81;100060.92;1693276;84;21971;-70
2022/12/23 02:33:02;;;;;;;36.58;24.55;;;;;;;3.83;69.88;100062.55;1705037;82;21119;-69
2022/12/23 02:36:07;;;;;;;37.33;23.38;;;;;;;3.85;69.84;100061.80;1679139;84;21547;-69
2022/12/23 02:38:44;;;;;;;42.62;25.85;;;;;;;3.91;69.80;100066.19;1676423;84;21082;-68
2022/12/23 02:41:29;;;;;;;37.67;24.00;;;;;;;3.92;69.91;100053.28;1707716;82;21101;-69
2022/12/23 02:44:10;;;;;;;33.55;23.12;;;;;;;3.94;69.84;100058.61;1691989;82;21118;-68
2022/12/23 02:47:02;;;;;;;35.03;24.15;;;;;;;3.95;69.78;100054.95;1705830;82;21086;-68
2022/12/23 02:49:33;;;;;;;;;;;;;;;3.96;69.74;100046.52;1696640;82;21050;-68
2022/12/23 02:52:03;;;;;;;35.45;22.60;;;;;;;3.96;69.72;100043.34;1696780;84;20181;-70
2022/12/23 02:54:36;;;;;;;34.33;22.70;;;;;;;3.96;69.68;100039.91;1678398;82;21030;-69
2022/12/23 02:57:03;;;;;;;33.78;23.15;;;;;;;4.04;69.53;100039.56;1708701;82;21227;-69
2022/12/23 02:59:38;;;;;;;39.60;25.25;;;;;;;4.17;69.21;100038.56;1685827;84;22097;-70
2022/12/23 03:02:05;;;;;;;40.15;23.90;;;;;;;4.17;69.05;100039.88;1703205;83;21097;-69
2022/12/23 03:04:31;;;;;;;35.92;23.45;;;;;;;4.16;68.88;100038.28;1695054;82;21126;-69
2022/12/23 03:06:59;;;;;;;34.20;24.18;;;;;;;4.14;68.83;100041.66;1685168;83;21058;-70
2022/12/23 03:09:37;;;;;;;33.02;22.65;;;;;;;4.14;68.81;100042.98;1686777;84;21950;-69
2022/12/23 03:12:17;;;;;;;35.78;22.80;;;;;;;4.10;68.90;100043.95;1702071;82;21652;-69
2022/12/23 03:15:14;;;;;;;37.80;23.45;;;;;;;4.02;69.24;100044.81;1705591;82;22408;-69
2022/12/23 03:18:01;;;;;;;37.10;22.98;;;;;;;4.00;69.28;100045.02;1695518;82;22162;-69
2022/12/23 03:21:08;;;;;;;36.45;23.55;;;;;;;3.94;69.32;100049.36;1682185;83;21091;-69
2022/12/23 03:23:47;;;;;;;39.38;23.45;;;;;;;3.91;69.33;100048.49;1661664;85;21176;-70
2022/12/23 03:26:19;;;;;;;31.87;21.45;;;;;;;3.92;69.46;100044.03;1686050;83;22281;-70
2022/12/23 03:28:59;;;;;;;33.10;22.65;;;;;;;3.94;69.55;100034.83;1680822;84;21031;-70
2022/12/23 03:31:29;;;;;;;32.85;22.87;;;;;;;3.95;69.54;100039.11;1679576;82;21628;-70
2022/12/23 03:34:04;;;;;;;37.08;23.40;;;;;;;4.04;69.44;100038.77;1691134;83;21148;-70
2022/12/23 03:36:50;;;;;;;32.28;21.87;;;;;;;4.18;69.16;100041.52;1684632;83;21342;-70
2022/12/23 03:39:21;;;;;;;33.83;23.52;;;;;;;4.20;68.97;100044.20;1653871;84;21047;-70
2022/12/23 03:41:54;;;;;;;33.13;22.62;;;;;;;4.20;68.88;100036.27;1706675;82;21046;-70
2022/12/23 03:44:27;;;;;;;34.27;23.47;;;;;;;4.21;68.87;100037.06;1701585;83;21139;-70
2022/12/23 03:47:10;;;;;;;32.80;21.15;;;;;;;4.05;69.21;100040.37;1681482;84;21067;-70
2022/12/23 03:49:46;;;;;;;33.88;22.58;;;;;;;3.99;69.24;100043.42;1669075;83;21197;-70
2022/12/23 03:52:19;;;;;;;34.38;23.90;;;;;;;3.88;69.40;100051.61;1687042;84;21038;-70
2022/12/23 03:54:53;;;;;;;33.53;22.77;;;;;;;3.86;69.63;100046.25;1667214;84;22434;-70
2022/12/23 03:57:21;;;;;;;37.95;24.10;;;;;;;3.88;69.79;100048.14;1700405;82;21033;-70
2022/12/23 03:59:50;;;;;;;36.90;24.65;;;;;;;3.91;69.83;100047.17;1681297;84;21105;-69
2022/12/23 04:02:55;;;;;;;41.98;25.23;;;;;;;3.95;69.77;100042.27;1694055;82;21315;-69
2022/12/23 04:05:28;;;;;;;38.75;23.73;;;;;;;3.96;69.72;100047.31;1699779;82;21560;-70
2022/12/23 04:08:16;;;;;;;39.58;24.65;;;;;;;3.95;69.83;100047.55;1686859;84;21570;-68
2022/12/23 04:10:43;;;;;;;36.13;24.23;;;;;;;3.98;69.76;100043.94;1691177;83;21019;-69
2022/12/23 04:13:09;;;;;;;33.78;23.73;;;;;;;3.98;69.85;100034.69;1714253;82;21587;-69
2022/12/23 04:15:40;;;;;;;33.80;22.20;;;;;;;4.02;69.95;100032.92;1674699;82;21811;-68
2022/12/23 04:18:07;;;;;;;38.53;24.40;;;;;;;4.08;69.89;100035.95;1688116;84;21050;-69
2022/12/23 04:20:35;;;;;;;38.02;24.02;;;;;;;4.04;69.90;100027.67;1703085;82;22147;-69
2022/12/23 04:23:02;;;;;;;36.77;23.65;;;;;;;4.06;69.84;100029.59;1697389;83;21530;-69
2022/12/23 04:25:28;;;;;;;37.48;23.47;;;;;;;4.05;69.81;100030.63;1698300;84;21079;-69
2022/12/23 04:27:55;;;;;;;31.60;22.07;;;;;;;4.05;69.78;100025.83;1665126;84;21534;-68
2022/12/23 04:30:22;;;;;;;33.42;22.67;;;;;;;4.07;69.77;100035.67;1693744;82;21002;-69
2022/12/23 04:32:48;;;;;;;33.60;23.10;;;;;;;4.04;69.65;100032.16;1718740;83;21153;-69
2022/12/23 04:35:15;;;;;;;34.78;23.12;;;;;;;3.99;69.67;100030.20;1700883;82;21089;-69
2022/12/23 04:37:42;;;;;;;36.15;23.32;;;;;;;3.99;69.68;100026.25;1689196;83;21508;-69
2022/12/23 04:40:09;;;;;;;32.98;22.85;;;;;;;3.98;69.68;100036.02;1720986;82;21288;-69
2022/12/23 04:42:36;;;;;;;30.90;22.25;;;;;;;3.99;69.60;100042.09;1695915;83;21011;-70
2022/12/23 04:45:03;;;;;;;31.42;22.60;;;;;;;3.98;69.60;100043.11;1693772;84;21074;-70
2022/12/23 04:47:30;;;;;;;33.35;22.98;;;;;;;3.98;69.60;100040.47;1712506;82;21194;-69
2022/12/23 04:49:56;;;;;;;34.33;23.32;;;;;;;4.00;69.66;100039.22;1677272;84;21098;-69
2022/12/23 04:52:22;;;;;;;35.45;23.25;;;;;;;4.06;69.68;100042.80;1684748;85;21460;-69
2022/12/23 04:54:49;;;;;;;32.85;22.22;;;;;;;4.12;69.68;100044.54;1700210;83;20991;-69
2022/12/23 04:57:16;;;;;;;34.15;24.35;;;;;;;4.13;69.58;100063.33;1711583;83;21075;-69
2022/12/23 04:59:42;;;;;;;33.95;23.83;;;;;;;4.15;69.27;100068.40;1691513;83;21456;-69
2022/12/23 05:02:11;;;;;;;30.72;21.95;;;;;;;4.07;69.32;100066.06;1691966;83;20960;-69
2022/12/23 05:04:37;;;;;;;34.53;22.35;;;;;;;4.04;69.39;100065.19;1699281;82;21171;-70
2022/12/23 05:07:04;;;;;;;35.60;22.87;;;;;;;4.16;69.26;100080.58;1701703;82;21327;-68
2022/12/23 05:09:30;;;;;;;33.65;23.10;;;;;;;4.11;69.33;100078.59;1699230;84;21157;-70
2022/12/23 05:11:57;;;;;;;34.30;23.00;;;;;;;4.05;69.42;100068.95;1699411;84;21477;-69
2022/12/23 05:14:23;;;;;;;34.85;24.15;;;;;;;4.06;69.47;100061.82;1705752;82;21030;-69
2022/12/23 05:16:49;;;;;;;35.98;23.00;;;;;;;4.23;69.08;100062.25;1704159;82;21854;-70
2022/12/23 05:19:16;;;;;;;33.02;23.05;;;;;;;4.26;69.00;100074.21;1722960;82;20967;-69
2022/12/23 05:21:42;;;;;;;31.77;22.73;;;;;;;4.30;68.95;100060.02;1722200;82;21062;-70
2022/12/23 05:24:09;;;;;;;33.38;23.18;;;;;;;4.29;68.86;100076.41;1678747;84;21060;-70
2022/12/23 05:26:36;;;;;;;37.35;23.70;;;;;;;4.30;68.84;100072.72;1720665;83;21534;-69
2022/12/23 05:29:03;;;;;;;36.15;24.43;;;;;;;4.62;68.23;100066.61;1723214;83;21095;-69
2022/12/23 05:31:30;;;;;;;35.85;24.00;;;;;;;4.80;67.62;100055.09;1713365;82;20965;-69
2022/12/23 05:33:56;;;;;;;33.48;23.55;;;;;;;4.85;67.15;100054.42;1710184;82;21076;-69
2022/12/23 05:36:23;;;;;;;34.55;23.38;;;;;;;4.81;66.96;100047.47;1724158;83;21516;-69
2022/12/23 05:38:50;;;;;;;33.92;24.02;;;;;;;4.78;66.83;100056.38;1719232;82;21109;-69
2022/12/23 05:41:16;;;;;;;34.65;23.18;;;;;;;4.77;66.75;100054.75;1696839;82;21128;-69
2022/12/23 05:43:43;;;;;;;33.73;24.52;;;;;;;4.74;66.64;100041.49;1689935;84;21030;-68
2022/12/23 05:46:10;;;;;;;33.75;24.43;;;;;;;4.69;66.51;100049.30;1685364;83;21084;-69
2022/12/23 05:48:37;;;;;;;36.83;24.60;;;;;;;4.60;66.45;100054.64;1701010;82;20999;-69
2022/12/23 05:51:04;;;;;;;37.63;26.15;;;;;;;4.59;66.47;100063.63;1697461;83;21564;-70
2022/12/23 05:53:32;;;;;;;38.75;25.90;;;;;;;4.54;66.43;100058.20;1695665;82;21165;-69
2022/12/23 05:56:04;;;;;;;39.27;26.15;;;;;;;4.52;66.46;100076.95;1691627;84;20981;-69
2022/12/23 05:58:31;;;;;;;42.13;27.02;;;;;;;4.49;66.51;100067.36;1686105;83;21039;-69
2022/12/23 06:00:57;;;;;;;39.78;27.10;;;;;;;4.48;66.61;100077.13;1694115;83;21067;-70
2022/12/23 06:03:25;;;;;;;44.73;29.37;;;;;;;4.44;66.66;100074.14;1691649;84;21133;-69
2022/12/23 06:05:52;;;;;;;44.77;29.50;;;;;;;4.43;66.73;100074.35;1698467;82;21243;-69
2022/12/23 06:08:19;;;;;;;44.20;28.90;;;;;;;4.43;66.78;100057.16;1668748;85;20991;-68
2022/12/23 06:10:46;;;;;;;43.40;28.23;;;;;;;4.42;66.78;100059.53;1668663;85;21482;-69
2022/12/23 06:13:13;;;;;;;41.63;27.95;;;;;;;4.42;66.65;100053.72;1675012;82;21098;-69
2022/12/23 06:15:40;;;;;;;41.33;28.20;;;;;;;4.32;66.77;100050.84;1704288;83;21074;-69
2022/12/23 06:18:06;;;;;;;42.35;28.35;;;;;;;4.29;66.88;100051.29;1697868;82;21180;-69
2022/12/23 06:20:33;;;;;;;40.55;27.80;;;;;;;4.26;66.95;100047.78;1702149;82;21046;-69
2022/12/23 06:23:00;;;;;;;41.58;26.40;;;;;;;4.25;67.06;100046.17;1713721;82;20983;-69
2022/12/23 06:25:26;;;;;;;38.92;26.90;;;;;;;4.25;67.17;100046.17;1716940;83;21478;-69
2022/12/23 06:27:53;;;;;;;36.77;26.82;;;;;;;4.22;67.27;100042.66;1717077;82;21111;-69
2022/12/23 06:30:19;;;;;;;38.88;27.02;;;;;;;4.21;67.36;100045.83;1701834;83;21118;-69
2022/12/23 06:32:46;;;;;;;36.68;26.00;;;;;;;4.22;67.48;100041.34;1703921;82;21001;-69
2022/12/23 06:35:12;;;;;;;36.50;25.70;;;;;;;4.24;67.54;100039.26;1723426;82;20993;-69
2022/12/23 06:37:39;;;;;;;36.42;25.15;;;;;;;4.23;67.63;100040.30;1724251;83;21179;-69
2022/12/23 06:40:08;;;;;;;32.78;24.45;;;;;;;4.26;67.71;100040.37;1704312;82;21126;-69
2022/12/23 06:42:34;;;;;;;36.73;24.27;;;;;;;4.31;67.80;100040.47;1707253;82;21259;-70
2022/12/23 06:45:01;;;;;;;36.42;23.85;;;;;;;4.37;67.87;100036.92;1668181;85;21578;-69
2022/12/23 06:47:27;;;;;;;33.73;23.57;;;;;;;4.43;67.95;100038.66;1711412;82;20985;-69
2022/12/23 06:49:54;;;;;;;32.63;24.30;;;;;;;4.53;67.94;100052.63;1697474;82;21468;-69
2022/12/23 06:52:21;;;;;;;36.63;25.30;;;;;;;4.54;67.83;100055.06;1699031;83;21118;-69
2022/12/23 06:54:48;;;;;;;34.27;24.75;;;;;;;4.55;67.79;100047.41;1707506;82;21142;-69
2022/12/23 06:57:14;;;;;;;36.28;25.43;;;;;;;4.60;67.65;100065.22;1727467;82;21034;-69
2022/12/23 06:59:42;;;;;;;35.05;25.35;;;;;;;4.62;67.56;100067.94;1707093;82;21011;-68
2022/12/23 07:02:10;;;;;;;39.63;25.62;;;;;;;4.64;67.48;100064.55;1674336;85;20980;-68
2022/12/23 07:04:37;;;;;;;36.70;25.97;;;;;;;4.69;67.41;100066.50;1688644;84;21125;-70
2022/12/23 07:07:03;;;;;;;38.38;25.68;;;;;;;4.73;67.34;100074.25;1684679;84;21587;-69
2022/12/23 07:09:30;;;;;;;35.17;24.80;;;;;;;4.77;67.24;100060.05;1721752;83;20991;-69
2022/12/23 07:11:57;;;;;;;40.98;26.93;;;;;;;4.83;67.09;100077.13;1697422;84;20996;-70
2022/12/23 07:14:23;;;;;;;36.42;24.70;;;;;;;4.82;66.88;100074.20;1706920;83;21045;-70
2022/12/23 07:16:50;;;;;;;37.33;24.75;;;;;;;4.82;66.75;100072.88;1716217;83;21100;-67
2022/12/23 07:19:17;;;;;;;36.25;25.08;;;;;;;4.79;66.62;100070.69;1702651;83;21269;-68
2022/12/23 07:21:43;;;;;;;36.33;25.60;;;;;;;4.80;66.58;100068.33;1687024;83;21009;-69
2022/12/23 07:24:10;;;;;;;39.03;25.35;;;;;;;4.83;66.51;100059.12;1716141;82;21037;-68
2022/12/23 07:26:37;;;;;;;35.75;25.27;;;;;;;4.87;66.47;100064.23;1718511;83;20941;-68
2022/12/23 07:29:04;;;;;;;36.88;26.12;;;;;;;4.91;66.38;100071.50;1681414;84;21078;-68
2022/12/23 07:31:31;;;;;;;37.15;25.37;;;;;;;4.91;66.11;100070.17;1711021;82;21107;-68
2022/12/23 07:33:57;;;;;;;36.77;24.63;;;;;;;4.95;66.09;100074.48;1707451;83;21097;-68
2022/12/23 07:36:24;;;;;;;34.10;24.70;;;;;;;5.03;66.08;100070.15;1719804;82;21564;-69
2022/12/23 07:38:51;;;;;;;36.83;25.80;;;;;;;5.14;65.97;100080.45;1703282;82;21109;-68
2022/12/23 07:41:17;;;;;;;32.53;21.65;;;;;;;5.25;65.92;100071.67;1704740;83;21594;-68
2022/12/23 07:43:45;;;;;;;38.48;25.27;;;;;;;5.35;65.62;100079.83;1704044;82;21379;-69
2022/12/23 07:46:11;;;;;;;34.63;25.27;;;;;;;5.44;65.49;100081.60;1711753;82;21510;-69
2022/12/23 07:48:40;;;;;;;34.65;24.45;;;;;;;5.54;65.20;100077.03;1698872;83;21052;-68
2022/12/23 07:51:07;;;;;;;33.45;23.57;;;;;;;5.66;64.97;100088.40;1699571;83;20961;-69
2022/12/23 07:53:34;;;;;;;33.88;24.27;;;;;;;5.75;64.67;100086.96;1669095;84;21096;-69
2022/12/23 07:56:00;;;;;;;35.43;24.35;;;;;;;5.86;64.45;100093.28;1696226;83;21825;-69
2022/12/23 07:58:27;;;;;;;32.42;22.98;;;;;;;5.96;64.25;100071.48;1693553;83;20960;-69
2022/12/23 08:01:06;;;;;;;34.55;24.20;;;;;;;6.06;63.96;100072.45;1681594;83;21120;-68
2022/12/23 08:03:33;;;;;;;31.17;22.40;;;;;;;6.15;63.58;100064.90;1341796;83;10000582;-70
2022/12/23 08:06:04;;;;;;;33.58;23.65;;;;;;;6.17;63.01;100078.73;1722554;82;21565;-70
2022/12/23 08:08:32;;;;;;;33.50;23.40;;;;;;;6.17;62.68;100072.63;1675365;83;21659;-70
2022/12/23 08:11:02;;;;;;;37.70;24.30;;;;;;;6.20;62.58;100078.25;1688035;84;21641;-70
2022/12/23 08:13:31;;;;;;;34.20;22.93;;;;;;;6.24;62.33;100068.77;1673230;83;21119;-70
2022/12/23 08:15:59;;;;;;;32.33;24.30;;;;;;;6.26;61.87;100066.69;1665705;84;21090;-70
2022/12/23 08:18:26;;;;;;;32.80;23.70;;;;;;;6.25;61.68;100067.75;1695032;84;21722;-71
2022/12/23 08:21:02;;;;;;;34.65;24.52;;;;;;;6.25;61.38;100072.22;1695646;82;21046;-71
2022/12/23 08:23:29;;;;;;;30.02;20.57;;;;;;;6.24;61.18;100083.36;1707859;82;21269;-68
2022/12/23 08:26:12;;;;;;;30.62;22.98;;;;;;;6.19;60.84;100081.96;1687611;83;21063;-70
2022/12/23 08:28:39;;;;;;;33.83;23.87;;;;;;;6.09;60.76;100073.31;1666640;84;21518;-70
2022/12/23 08:31:15;;;;;;;33.80;23.73;;;;;;;6.04;60.90;100068.43;1722535;82;21714;-70
2022/12/23 08:33:44;;;;;;;34.27;23.75;;;;;;;6.05;60.89;100062.08;1702789;82;21043;-70
2022/12/23 08:36:20;;;;;;;34.95;23.35;;;;;;;6.06;60.88;100069.01;1686970;84;21311;-70
2022/12/23 08:38:48;;;;;;;35.58;23.25;;;;;;;6.08;60.88;100061.08;1696077;82;21077;-70
2022/12/23 08:41:18;;;;;;;33.67;24.55;;;;;;;6.13;60.88;100056.40;1697365;83;21507;-69
2022/12/23 08:43:45;;;;;;;32.10;22.80;;;;;;;6.17;60.83;100052.22;1690168;83;21051;-70
2022/12/23 08:46:12;;;;;;;34.18;23.65;;;;;;;6.19;60.62;100043.52;1695621;83;21621;-69
2022/12/23 08:48:38;;;;;;;36.40;23.85;;;;;;;6.20;60.58;100039.00;1696848;83;21183;-71
2022/12/23 08:51:08;;;;;;;31.82;23.67;;;;;;;6.22;60.55;100039.55;1693235;84;21024;-68
2022/12/23 08:53:37;;;;;;;31.52;22.62;;;;;;;6.25;60.44;100040.39;1698847;83;21001;-68
2022/12/23 08:56:05;;;;;;;36.15;24.52;;;;;;;6.24;60.36;100038.27;1679747;84;21033;-69
2022/12/23 08:58:39;;;;;;;34.33;23.30;;;;;;;6.23;60.12;100035.34;1692840;84;21561;-68
2022/12/23 09:01:08;;;;;;;35.23;24.27;;;;;;;6.21;59.96;100030.80;1671128;83;21700;-70
2022/12/23 09:03:36;;;;;;;36.42;23.85;;;;;;;6.21;59.94;100032.12;1652421;84;21077;-68
2022/12/23 09:06:06;;;;;;;33.73;23.60;;;;;;;6.20;59.85;100030.52;1684350;84;21567;-69
2022/12/23 09:08:33;;;;;;;35.15;24.18;;;;;;;6.22;59.94;100027.62;1681310;84;21460;-69
2022/12/23 09:11:00;;;;;;;31.68;22.45;;;;;;;6.26;59.88;100028.23;1684295;83;21666;-70
2022/12/23 09:13:26;;;;;;;34.03;23.98;;;;;;;6.31;59.66;100024.32;1688329;84;21219;-69
2022/12/23 09:15:53;;;;;;;33.05;24.07;;;;;;;6.38;59.56;100033.45;1698484;83;21144;-70
2022/12/23 09:18:20;;;;;;;34.15;24.12;;;;;;;6.46;59.51;100025.62;1706120;82;21071;-70
2022/12/23 09:20:46;;;;;;;34.20;24.52;;;;;;;6.57;59.44;100020.73;1703300;83;21102;-69
2022/12/23 09:23:13;;;;;;;33.45;22.80;;;;;;;6.68;59.25;100015.87;1677768;84;21152;-70
2022/12/23 09:25:39;;;;;;;32.85;23.18;;;;;;;6.75;58.78;100018.34;1657409;86;21163;-71
2022/12/23 09:28:06;;;;;;;36.28;24.65;;;;;;;6.78;58.54;100003.27;1676803;84;21071;-69
2022/12/23 09:30:33;;;;;;;37.05;24.85;;;;;;;6.84;58.47;100008.09;1670488;83;21041;-69
2022/12/23 09:33:00;;;;;;;36.80;24.87;;;;;;;6.90;58.23;100009.77;1656122;84;21692;-69
2022/12/23 09:35:26;;;;;;;33.00;23.90;;;;;;;6.94;57.71;100013.53;1671635;84;21084;-68
2022/12/23 09:37:53;;;;;;;36.08;24.30;;;;;;;6.96;57.46;100020.21;1688914;82;21064;-70
2022/12/23 09:40:20;;;;;;;33.67;23.20;;;;;;;7.00;57.36;100019.19;1672620;84;21065;-70
2022/12/23 09:43:26;;;;;;;37.45;25.23;;;;;;;7.05;57.04;100023.25;1643895;86;21070;-69
2022/12/23 09:46:14;;;;;;;34.53;23.98;;;;;;;7.10;56.73;100032.59;1693227;84;21052;-69
2022/12/23 09:48:47;;;;;;;36.48;24.95;;;;;;;7.18;56.66;100030.05;1696508;82;21016;-70
2022/12/23 09:51:14;;;;;;;32.30;21.33;;;;;;;7.26;56.34;100019.78;1701940;83;21789;-70
2022/12/23 09:53:55;;;;;;;34.18;23.98;;;;;;;7.26;55.84;100017.13;1673072;84;21533;-70
2022/12/23 09:56:33;;;;;;;33.88;23.95;;;;;;;7.22;55.81;100022.66;1697409;82;20984;-70
2022/12/23 09:59:23;;;;;;;34.80;23.32;;;;;;;7.18;55.91;100010.94;1676446;84;21039;-69
2022/12/23 10:02:29;;;;;;;33.45;23.32;;;;;;;7.20;56.14;100008.81;1674033;84;21092;-70
2022/12/23 10:05:23;;;;;;;34.90;24.65;;;;;;;7.42;55.66;100005.34;1695980;82;21092;-71
2022/12/23 10:08:18;;;;;;;36.42;25.40;;;;;;;7.49;55.60;100009.41;1680536;84;21089;-71
2022/12/23 10:10:49;;;;;;;36.75;26.02;;;;;;;7.57;55.57;100013.99;1639396;86;21557;-69
2022/12/23 10:13:25;;;;;;;36.13;25.65;;;;;;;7.31;55.90;100012.94;1672710;83;21050;-69
2022/12/23 10:15:53;;;;;;;35.88;24.92;;;;;;;7.42;55.38;100009.33;1673955;84;21224;-69
2022/12/23 10:18:55;;;;;;;35.03;23.50;;;;;;;7.39;55.32;100003.19;1675884;84;21518;-69
2022/12/23 10:21:45;;;;;;;39.23;26.20;;;;;;;7.35;55.43;99992.79;1679690;84;21041;-70
2022/12/23 10:24:39;;;;;;;36.20;24.50;;;;;;;7.39;55.51;99985.92;1695815;83;21074;-69
2022/12/23 10:27:36;;;;;;;36.95;25.55;;;;;;;7.45;55.44;99988.91;1682885;84;21026;-68
2022/12/23 10:30:11;;;;;;;35.38;25.62;;;;;;;7.50;55.32;99992.44;1692535;83;21039;-68
2022/12/23 10:33:23;;;;;;;40.95;25.82;;;;;;;7.56;55.08;99989.28;1660492;84;21143;-69
2022/12/23 10:36:14;;;;;;;37.85;25.55;;;;;;;7.57;55.05;99994.89;1691160;83;21081;-71
2022/12/23 10:38:52;;;;;;;40.03;25.23;;;;;;;7.53;54.84;100000.41;1700308;84;21039;-70
2022/12/23 10:41:37;;;;;;;38.02;25.10;;;;;;;7.42;54.71;99986.22;1687894;85;21038;-69
2022/12/23 10:44:33;;;;;;;41.33;26.37;;;;;;;7.36;54.77;100001.03;1620855;86;21070;-69
2022/12/23 10:47:15;;;;;;;33.18;23.83;;;;;;;7.25;54.88;100010.21;1680653;83;21298;-69
2022/12/23 10:49:52;;;;;;;39.90;26.37;;;;;;;7.23;55.16;100012.30;1695356;83;21081;-69
2022/12/23 10:52:21;;;;;;;37.45;25.85;;;;;;;7.24;55.22;100007.29;1685439;82;21098;-69
2022/12/23 10:54:48;;;;;;;42.17;28.07;;;;;;;7.11;55.61;100002.85;1695414;84;21506;-68
2022/12/23 10:57:17;;;;;;;42.25;27.00;;;;;;;7.14;55.69;99991.23;1697371;83;21074;-69
2022/12/23 10:59:44;;;;;;;38.65;26.68;;;;;;;7.21;55.78;99979.09;1680593;82;21121;-69
2022/12/23 11:02:16;;;;;;;44.08;28.40;;;;;;;7.29;55.81;99970.14;1672575;84;21068;-70
2022/12/23 11:04:44;;;;;;;;;;;;;;;7.40;55.55;99958.29;1654854;84;21504;-70
2022/12/23 11:07:16;;;;;;;39.45;26.10;;;;;;;7.48;55.45;99953.87;1661837;86;20173;-70
2022/12/23 11:09:56;;;;;;;42.33;29.18;;;;;;;7.56;55.49;99962.70;1666867;84;21660;-70
2022/12/23 11:12:25;;;;;;;43.98;29.35;;;;;;;7.70;55.46;99970.56;1679688;84;21166;-69
2022/12/23 11:14:55;;;;;;;40.75;27.65;;;;;;;7.84;55.24;99958.19;1684545;82;21520;-69
2022/12/23 11:17:27;;;;;;;43.28;28.20;;;;;;;7.91;55.05;99950.79;1695848;84;21054;-69
2022/12/23 11:20:14;;;;;;;;;;;;;;;7.97;54.85;99941.80;1655080;86;21052;-69
2022/12/23 11:22:54;;;;;;;39.30;25.57;;;;;;;8.01;54.64;99947.41;1694437;84;20185;-69
2022/12/23 11:25:32;;;;;;;43.83;29.20;;;;;;;8.00;54.44;99943.95;1695518;82;23180;-71
2022/12/23 11:28:15;;;;;;;38.58;24.90;;;;;;;7.98;54.49;99950.05;1673906;84;21086;-70
2022/12/23 11:31:08;;;;;;;39.13;25.02;;;;;;;8.01;54.37;99959.38;1670260;84;21119;-70
2022/12/23 11:33:56;;;;;;;43.05;25.68;;;;;;;7.94;54.31;99962.25;1696162;82;21030;-70
2022/12/23 11:36:26;;;;;;;49.00;30.50;;;;;;;7.86;54.33;99964.03;1685639;84;21612;-70
2022/12/23 11:39:10;;;;;;;42.08;27.58;;;;;;;7.75;54.49;99960.48;1667712;84;21213;-70
2022/12/23 11:41:44;;;;;;;45.73;29.00;;;;;;;7.70;54.71;99965.25;1687459;83;21117;-70
2022/12/23 11:44:19;;;;;;;41.40;27.10;;;;;;;7.63;54.72;99972.59;1690626;83;21691;-71
2022/12/23 11:46:46;;;;;;;44.42;28.30;;;;;;;7.59;54.91;99982.66;1661916;84;21062;-71
2022/12/23 11:49:27;;;;;;;45.83;29.72;;;;;;;7.57;54.92;99973.62;1688043;83;21057;-69
2022/12/23 11:52:13;;;;;;;44.93;29.32;;;;;;;7.53;54.99;99967.19;1688942;84;21654;-69
2022/12/23 11:54:40;;;;;;;43.55;29.98;;;;;;;7.51;55.11;99974.62;1654479;86;21114;-69
2022/12/23 11:57:11;;;;;;;45.50;30.10;;;;;;;7.46;55.29;99961.28;1680308;84;21140;-69
2022/12/23 11:59:49;;;;;;;46.28;29.32;;;;;;;7.49;55.52;99962.91;1663474;86;21274;-69
2022/12/23 12:02:26;;;;;;;46.75;29.72;;;;;;;7.58;55.56;99969.11;1692737;82;21444;-69
2022/12/23 12:05:04;;;;;;;42.08;27.82;;;;;;;7.57;55.21;99984.27;1699857;83;21884;-69
2022/12/23 12:07:31;;;;;;;40.08;25.45;;;;;;;7.50;55.38;99984.95;1706178;83;21054;-71
2022/12/23 12:09:58;;;;;;;44.75;31.12;;;;;;;7.50;55.54;99987.12;1440358;84;10000100;-69
2022/12/23 12:12:25;;;;;;;42.33;29.45;;;;;;;7.56;55.71;99974.66;1666169;84;21050;-70
2022/12/23 12:14:55;;;;;;;46.70;29.70;;;;;;;7.77;55.58;99976.20;1698650;83;21541;-70